ADDS METAR Data INFO
IDs: Format: Raw Decoded Include TAF

Data at: 1848 UTC 17 Oct 2017

K0V4 171835Z AUTO 11003KT 10SM CLR 17/02 A3032 RMK AO1 T01720023
K0V4 171815Z AUTO 07006KT 10SM CLR 17/02 A3033 RMK AO1 T01650021
K0V4 171755Z AUTO 04008KT 10SM CLR 17/01 A3034 RMK AO1 T01650014 10168 20029
K0V4 171735Z AUTO 01006KT 10SM CLR 17/03 A3035 RMK AO1 T01680026
K0V4 171715Z AUTO 02007KT 360V080 10SM CLR 16/02 A3036 RMK AO1 T01630024
K0V4 171655Z AUTO 06006KT 330V070 10SM CLR 16/03 A3037 RMK AO1 T01630031
K0V4 171635Z AUTO 35007KT 10SM CLR 16/03 A3037 RMK AO1 T01560028
K0V4 171615Z AUTO 36008KT 10SM CLR 15/03 A3038 RMK AO1 T01540033
K0V4 171555Z AUTO 06010KT 10SM CLR 15/03 A3038 RMK AO1 T01480032
K0V4 171535Z AUTO 04007KT 020V080 10SM CLR 14/03 A3039 RMK AO1 T01430034
K0V4 171515Z AUTO 05006KT 10SM CLR 14/04 A3039 RMK AO1 T01390038
K0V4 171455Z AUTO 05006KT 10SM CLR 13/04 A3039 RMK AO1 T01340038
K0V4 171435Z AUTO 03008KT 10SM CLR 13/04 A3039 RMK AO1 T01310042
K0V4 171415Z AUTO 04008KT 10SM CLR 12/04 A3039 RMK AO1 T01200037
K0V4 171355Z AUTO 05008KT 10SM CLR 11/06 A3039 RMK AO1 T01140057
K0V4 171335Z AUTO 04006KT 10SM CLR 10/06 A3039 RMK AO1 T01040062
K0V4 171315Z AUTO 04004KT 10SM CLR 10/07 A3038 RMK AO1 T00960066
K0V4 171255Z AUTO 00000KT 10SM CLR 08/07 A3038 RMK AO1 T00780068
K0V4 171235Z AUTO 00000KT 10SM CLR 06/06 A3037 RMK AO1 T00590058
K0V4 171215Z AUTO 00000KT 10SM CLR 04/04 A3036 RMK AO1 T00390038
K0V4 171155Z AUTO 00000KT 10SM CLR 03/03 A3036 RMK AO1 70001 T00270026 10066 20024
K0V4 171135Z AUTO 00000KT 10SM CLR 03/03 A3035 RMK AO1 T00310031
K0V4 171115Z AUTO 00000KT 10SM CLR 03/03 A3034 RMK AO1 T00310030
K0V4 171055Z AUTO 00000KT 10SM CLR 03/03 A3033 RMK AO1 T00300030
K0V4 171035Z AUTO 00000KT 10SM CLR 04/03 A3032 RMK AO1 T00350034
K0V4 171015Z AUTO 00000KT 10SM CLR 04/04 A3032 RMK AO1 T00410040
K0V4 170955Z AUTO 00000KT 10SM CLR 04/04 A3031 RMK AO1 T00360036
K0V4 170935Z AUTO 00000KT 10SM CLR 04/04 A3031 RMK AO1 T00400039
K0V4 170915Z AUTO 00000KT 10SM CLR 04/04 A3030 RMK AO1 T00410039
K0V4 170855Z AUTO 04003KT 10SM CLR 06/05 A3029 RMK AO1 T00570049
K0V4 170835Z AUTO 34004KT 10SM CLR 06/05 A3028 RMK AO1 T00580053
K0V4 170815Z AUTO 00000KT 10SM CLR 07/05 A3028 RMK AO1 T00650047
K0V4 170755Z AUTO 00000KT 10SM CLR 05/05 A3028 RMK AO1 T00460046
K0V4 170735Z AUTO 34004KT 10SM CLR 05/05 A3028 RMK AO1 T00470046
K0V4 170715Z AUTO 00000KT 10SM CLR 04/04 A3028 RMK AO1 T00420041
K0V4 170655Z AUTO 00000KT 10SM CLR 05/05 A3028 RMK AO1 T00470046
K0V4 170635Z AUTO 28003KT 10SM CLR 05/05 A3028 RMK AO1 T00520051
K0V4 170615Z AUTO 31003KT 10SM CLR 05/05 A3028 RMK AO1 T00510050
K0V4 170555Z AUTO 29003KT 10SM CLR 05/05 A3028 RMK AO1 T00530053 10132 20051
K0V4 170535Z AUTO 00000KT 10SM CLR 07/06 A3027 RMK AO1 T00660057
K0V4 170515Z AUTO 17003KT 10SM CLR 06/06 A3028 RMK AO1 T00560055
K0V4 170455Z AUTO 00000KT 10SM CLR 06/06 A3028 RMK AO1 T00590058 402190059
K0V4 170435Z AUTO 33003KT 10SM CLR 08/05 A3028 RMK AO1 T00780053
K0V4 170420Z AUTO 33003KT 10SM CLR 08/05 A3028 RMK AO1 T00790054
K0V4 170355Z AUTO 00000KT 10SM CLR 09/05 A3028 RMK AO1 T00880051
K0V4 170335Z AUTO 00000KT 10SM CLR 10/05 A3028 RMK AO1 T00990047
K0V4 170315Z AUTO 00000KT 10SM CLR 09/05 A3027 RMK AO1 T00910054
K0V4 170255Z AUTO 34004KT 10SM CLR 10/06 A3027 RMK AO1 T00970056
K0V4 170235Z AUTO 00000KT 10SM CLR 10/05 A3026 RMK AO1 T01030053
K0V4 170215Z AUTO 04003KT 10SM CLR 11/05 A3025 RMK AO1 T01070052
K0V4 170155Z AUTO 36004KT 10SM CLR 12/05 A3025 RMK AO1 T01150053
K0V4 170135Z AUTO 36003KT 10SM CLR 11/05 A3024 RMK AO1 T01130054
K0V4 170115Z AUTO 35004KT 10SM CLR 12/05 A3022 RMK AO1 T01180054
K0V4 170055Z AUTO 33004KT 10SM CLR 12/06 A3022 RMK AO1 T01200055
K0V4 170035Z AUTO 00000KT 10SM CLR 13/06 A3021 RMK AO1 T01270055
K0V4 170015Z AUTO 34003KT 10SM CLR 13/05 A3020 RMK AO1 T01310052
K0V4 162355Z AUTO 33003KT 10SM CLR 13/06 A3019 RMK AO1 T01320055 10199 20129
K0V4 162335Z AUTO 36004KT 10SM SCT065 13/06 A3018 RMK AO1 T01290060
K0V4 162320Z AUTO 34004KT 10SM BKN065 14/05 A3017 RMK AO1 T01420053
K0V4 162255Z AUTO 33004KT 10SM CLR 15/05 A3016 RMK AO1 T01500049
K0V4 162235Z AUTO 33007KT 10SM CLR 16/05 A3014 RMK AO1 T01620046
K0V4 162215Z AUTO 33005KT 10SM SCT060 17/05 A3014 RMK AO1 T01720047
K0V4 162155Z AUTO 32007G16KT 10SM BKN060 18/05 A3013 RMK AO1 T01800049
K0V4 162135Z AUTO 34010G17KT 10SM BKN060 19/06 A3012 RMK AO1 T01900057
K0V4 162115Z AUTO 33009KT 10SM SCT060 19/06 A3012 RMK AO1 T01900055
K0V4 162055Z AUTO 34009G15KT 10SM BKN060 19/06 A3011 RMK AO1 T01910059
K0V4 162035Z AUTO 31010KT 10SM CLR 20/06 A3011 RMK AO1 T01960062
K0V4 162015Z AUTO 33011G16KT 10SM CLR 19/06 A3011 RMK AO1 T01910061
K0V4 161955Z AUTO 31009G14KT 290V350 10SM SCT055 19/07 A3011 RMK AO1 T01910065
K0V4 161935Z AUTO 33009G16KT 10SM SCT055 19/07 A3011 RMK AO1 T01930068
K0V4 161915Z AUTO 33008G16KT 10SM SCT055 19/06 A3010 RMK AO1 T01890064
K0V4 161855Z AUTO 36009G16KT 10SM SCT050 20/07 A3011 RMK AO1 T01980074
K0V4 161835Z AUTO 01008G14KT 10SM BKN050 19/08 A3010 RMK AO1 T01890075
K0V4 161815Z AUTO 34005KT 10SM SCT050 19/08 A3010 RMK AO1 T01940082
K0V4 161755Z AUTO 36008G14KT 310V010 10SM SCT050 20/07 A3010 RMK AO1 60001 T01950074 10202 20152
K0V4 161735Z AUTO 32007KT 10SM SCT049 20/08 A3011 RMK AO1 T01950075
K0V4 161715Z AUTO 32008G14KT 10SM SCT049 20/09 A3011 RMK AO1 T02010085
K0V4 161655Z AUTO 32007KT 10SM OVC049 20/08 A3011 RMK AO1 T01960084
K0V4 161635Z AUTO 36007KT 10SM OVC047 19/09 A3011 RMK AO1 T01900089
K0V4 161615Z AUTO 32007KT 10SM OVC045 18/09 A3011 RMK AO1 T01810089
K0V4 161555Z AUTO 33006KT 10SM OVC041 18/09 A3011 RMK AO1 T01760089
K0V4 161535Z AUTO 34004KT 10SM OVC039 17/10 A3011 RMK AO1 T01710095
K0V4 161515Z AUTO 32006KT 10SM SCT037 SCT070 17/10 A3011 RMK AO1 T01710101
K0V4 161455Z AUTO 33006KT 10SM CLR 16/11 A3011 RMK AO1 60001 T01640106
K0V4 161435Z AUTO 33009KT 10SM CLR 16/11 A3010 RMK AO1 T01620109
K0V4 161415Z AUTO 33007KT 10SM SCT041 16/13 A3009 RMK AO1 T01560127
K0V4 161355Z AUTO 34005KT 10SM SCT033 BKN039 BKN065 15/14 A3009 RMK AO1 P0001 T01530135
K0V4 161335Z AUTO 29005KT 10SM SCT070 SCT085 OVC110 16/15 A3009 RMK AO1 T01550153
K0V4 161315Z AUTO 02003KT 10SM SCT085 SCT110 15/15 A3006 RMK AO1 T01530152
K0V4 161255Z AUTO 29004KT 10SM CLR 15/15 A3006 RMK AO1 T01540151
K0V4 161235Z AUTO 35005KT 10SM SCT060 SCT120 15/15 A3005 RMK AO1 T01530152
K0V4 161215Z AUTO 31005KT 10SM SCT060 BKN120 15/15 A3005 RMK AO1 T01520151
K0V4 161155Z AUTO 28005KT 10SM SCT060 SCT075 OVC120 16/15 A3005 RMK AO1 P0003 60022 70022 T01550153 10219 20155
K0V4 161135Z AUTO 27007KT 10SM SCT019 SCT031 OVC120 16/16 A3005 RMK AO1 P0003 T01560155
K0V4 161115Z AUTO 28005KT 10SM SCT014 BKN025 OVC065 16/16 A3004 RMK AO1 P0001 T01600160
K0V4 161055Z AUTO 29005KT 7SM SCT014 BKN021 OVC065 16/16 A3002 RMK AO1 P0007 T01620161
K0V4 161035Z AUTO 29006KT 5SM SCT018 BKN024 OVC065 17/17 A3000 RMK AO1 P0005 T01660166
K0V4 161015Z AUTO 30006KT 7SM BKN020 OVC055 17/17 A3000 RMK AO1 P0001 T01740173
K0V4 160955Z AUTO 31004KT 5SM SCT033 SCT045 OVC055 18/18 A2998 RMK AO1 P0007 T01760175
K0V4 160935Z AUTO 34004KT 10SM SCT019 BKN035 OVC055 18/18 A2998 RMK AO1 P0002 T01800178
K0V4 160915Z AUTO 29006KT 10SM SCT012 BKN017 OVC070 18/18 A2998 RMK AO1 P0002 T01820181
K0V4 160855Z AUTO 26006KT 7SM SCT007 BKN012 OVC070 19/19 A2998 RMK AO1 P0005 60005 T01900189
K0V4 160835Z AUTO 28005KT 7SM SCT011 BKN050 OVC065 20/20 A2997 RMK AO1 P0003 T01970196
K0V4 160815Z AUTO 35003KT 10SM SCT016 BKN038 OVC048 20/20 A2994 RMK AO1 T02010201
K0V4 160755Z AUTO 31006KT 10SM SCT028 BKN034 OVC040 21/21 A2995 RMK AO1 T02100206
K0V4 160735Z AUTO 30006KT 10SM SCT015 OVC029 22/20 A2994 RMK AO1 T02150204
K0V4 160715Z AUTO 30008KT 10SM OVC017 22/21 A2994 RMK AO1 T02180213
K0V4 160655Z AUTO 00000KT 10SM SCT019 BKN023 OVC060 22/22 A2994 RMK AO1 T02150215